sensor_id;sensor_type;location;lat;lon;timestamp;temperature;humidity
56727;DHT22;42609;52.700;6.236;2023-04-01T00:00:20;10.80;99.90
56727;DHT22;42609;52.700;6.236;2023-04-01T00:02:46;10.80;99.90
56727;DHT22;42609;52.700;6.236;2023-04-01T00:05:12;10.80;99.90
56727;DHT22;42609;52.700;6.236;2023-04-01T00:07:39;10.80;99.90
56727;DHT22;42609;52.700;6.236;2023-04-01T00:10:07;10.80;99.90
56727;DHT22;42609;52.700;6.236;2023-04-01T00:12:33;10.80;99.90
56727;DHT22;42609;52.700;6.236;2023-04-01T00:14:59;10.80;99.90
56727;DHT22;42609;52.700;6.236;2023-04-01T00:17:25;10.80;99.90
56727;DHT22;42609;52.700;6.236;2023-04-01T00:19:50;10.80;99.90
56727;DHT22;42609;52.700;6.236;2023-04-01T00:22:16;10.80;99.90
56727;DHT22;42609;52.700;6.236;2023-04-01T00:24:42;10.80;99.90
56727;DHT22;42609;52.700;6.236;2023-04-01T00:27:07;10.80;99.90
56727;DHT22;42609;52.700;6.236;2023-04-01T00:29:34;10.80;99.90
56727;DHT22;42609;52.700;6.236;2023-04-01T00:32:00;10.80;99.90
56727;DHT22;42609;52.700;6.236;2023-04-01T00:34:26;10.80;99.90
56727;DHT22;42609;52.700;6.236;2023-04-01T00:36:52;10.70;99.90
56727;DHT22;42609;52.700;6.236;2023-04-01T00:39:19;10.70;99.90
56727;DHT22;42609;52.700;6.236;2023-04-01T00:41:44;10.70;99.90
56727;DHT22;42609;52.700;6.236;2023-04-01T00:44:23;10.70;99.90
56727;DHT22;42609;52.700;6.236;2023-04-01T00:46:49;10.70;99.90
56727;DHT22;42609;52.700;6.236;2023-04-01T00:49:16;10.70;99.90
56727;DHT22;42609;52.700;6.236;2023-04-01T00:51:45;10.80;99.90
56727;DHT22;42609;52.700;6.236;2023-04-01T00:54:14;10.70;99.90
56727;DHT22;42609;52.700;6.236;2023-04-01T00:59:32;10.80;99.90
56727;DHT22;42609;52.700;6.236;2023-04-01T01:02:00;10.80;99.90
56727;DHT22;42609;52.700;6.236;2023-04-01T01:04:29;10.80;99.90
56727;DHT22;42609;52.700;6.236;2023-04-01T01:12:16;10.70;99.90
56727;DHT22;42609;52.700;6.236;2023-04-01T01:15:41;10.70;99.90
56727;DHT22;42609;52.700;6.236;2023-04-01T01:17:58;10.70;99.90
56727;DHT22;42609;52.700;6.236;2023-04-01T01:23:14;10.80;99.90
56727;DHT22;42609;52.700;6.236;2023-04-01T01:34:36;10.80;99.90
56727;DHT22;42609;52.700;6.236;2023-04-01T01:37:09;10.80;99.90
56727;DHT22;42609;52.700;6.236;2023-04-01T01:39:36;10.70;99.90
56727;DHT22;42609;52.700;6.236;2023-04-01T01:42:05;10.80;99.90
56727;DHT22;42609;52.700;6.236;2023-04-01T01:44:32;10.80;99.90
56727;DHT22;42609;52.700;6.236;2023-04-01T01:46:59;10.80;99.90
56727;DHT22;42609;52.700;6.236;2023-04-01T01:49:27;10.80;99.90
56727;DHT22;42609;52.700;6.236;2023-04-01T01:51:53;10.80;99.90
56727;DHT22;42609;52.700;6.236;2023-04-01T01:54:19;10.80;99.90
56727;DHT22;42609;52.700;6.236;2023-04-01T01:56:48;10.80;99.90
56727;DHT22;42609;52.700;6.236;2023-04-01T01:59:15;10.80;99.90
56727;DHT22;42609;52.700;6.236;2023-04-01T02:01:48;10.80;99.90
56727;DHT22;42609;52.700;6.236;2023-04-01T02:04:15;10.80;99.90
56727;DHT22;42609;52.700;6.236;2023-04-01T02:07:09;10.80;99.90
56727;DHT22;42609;52.700;6.236;2023-04-01T02:09:37;10.80;99.90
56727;DHT22;42609;52.700;6.236;2023-04-01T02:12:06;10.80;99.90
56727;DHT22;42609;52.700;6.236;2023-04-01T02:14:47;10.80;99.90
56727;DHT22;42609;52.700;6.236;2023-04-01T02:17:18;10.80;99.90
56727;DHT22;42609;52.700;6.236;2023-04-01T02:19:49;10.80;99.90
56727;DHT22;42609;52.700;6.236;2023-04-01T02:22:20;10.80;99.90
56727;DHT22;42609;52.700;6.236;2023-04-01T02:24:48;10.80;99.90
56727;DHT22;42609;52.700;6.236;2023-04-01T02:27:14;10.80;99.90
56727;DHT22;42609;52.700;6.236;2023-04-01T02:29:40;10.80;99.90
56727;DHT22;42609;52.700;6.236;2023-04-01T02:32:06;10.80;99.90
56727;DHT22;42609;52.700;6.236;2023-04-01T02:34:33;10.80;99.90
56727;DHT22;42609;52.700;6.236;2023-04-01T02:36:58;10.80;99.90
56727;DHT22;42609;52.700;6.236;2023-04-01T02:39:24;10.80;99.90
56727;DHT22;42609;52.700;6.236;2023-04-01T02:41:52;10.80;99.90
56727;DHT22;42609;52.700;6.236;2023-04-01T02:44:17;10.80;99.90
56727;DHT22;42609;52.700;6.236;2023-04-01T02:46:43;10.80;99.90
56727;DHT22;42609;52.700;6.236;2023-04-01T02:49:09;10.80;99.90
56727;DHT22;42609;52.700;6.236;2023-04-01T02:51:35;10.80;99.90
56727;DHT22;42609;52.700;6.236;2023-04-01T02:54:01;10.80;99.90
56727;DHT22;42609;52.700;6.236;2023-04-01T02:56:26;10.80;99.90
56727;DHT22;42609;52.700;6.236;2023-04-01T02:58:53;10.80;99.90
56727;DHT22;42609;52.700;6.236;2023-04-01T03:01:19;10.80;99.90
56727;DHT22;42609;52.700;6.236;2023-04-01T03:03:45;10.80;99.90
56727;DHT22;42609;52.700;6.236;2023-04-01T03:06:12;10.80;99.90
56727;DHT22;42609;52.700;6.236;2023-04-01T03:08:39;10.80;99.90
56727;DHT22;42609;52.700;6.236;2023-04-01T03:11:05;10.80;99.90
56727;DHT22;42609;52.700;6.236;2023-04-01T03:13:31;10.80;99.90
56727;DHT22;42609;52.700;6.236;2023-04-01T03:15:57;10.80;99.90
56727;DHT22;42609;52.700;6.236;2023-04-01T03:18:22;10.80;99.90
56727;DHT22;42609;52.700;6.236;2023-04-01T03:20:48;10.80;99.90
56727;DHT22;42609;52.700;6.236;2023-04-01T03:23:14;10.80;99.90
56727;DHT22;42609;52.700;6.236;2023-04-01T03:25:39;10.80;99.90
56727;DHT22;42609;52.700;6.236;2023-04-01T03:28:05;10.80;99.90
56727;DHT22;42609;52.700;6.236;2023-04-01T03:30:31;10.80;99.90
56727;DHT22;42609;52.700;6.236;2023-04-01T03:32:57;10.80;99.90
56727;DHT22;42609;52.700;6.236;2023-04-01T03:35:23;10.80;99.90
56727;DHT22;42609;52.700;6.236;2023-04-01T03:37:51;10.80;99.90
56727;DHT22;42609;52.700;6.236;2023-04-01T03:40:17;10.80;99.90
56727;DHT22;42609;52.700;6.236;2023-04-01T03:42:42;10.80;99.90
56727;DHT22;42609;52.700;6.236;2023-04-01T03:45:08;10.80;99.90
56727;DHT22;42609;52.700;6.236;2023-04-01T03:47:34;10.80;99.90
56727;DHT22;42609;52.700;6.236;2023-04-01T03:50:00;10.80;99.90
56727;DHT22;42609;52.700;6.236;2023-04-01T03:52:26;10.80;99.90
56727;DHT22;42609;52.700;6.236;2023-04-01T03:54:51;10.80;99.90
56727;DHT22;42609;52.700;6.236;2023-04-01T03:57:17;10.80;99.90
56727;DHT22;42609;52.700;6.236;2023-04-01T03:59:42;10.80;99.90
56727;DHT22;42609;52.700;6.236;2023-04-01T04:02:08;10.80;99.90
56727;DHT22;42609;52.700;6.236;2023-04-01T04:04:34;10.80;99.90
56727;DHT22;42609;52.700;6.236;2023-04-01T04:07:00;10.80;99.90
56727;DHT22;42609;52.700;6.236;2023-04-01T04:09:25;10.80;99.90
56727;DHT22;42609;52.700;6.236;2023-04-01T04:11:51;10.80;99.90
56727;DHT22;42609;52.700;6.236;2023-04-01T04:14:16;10.80;99.90
56727;DHT22;42609;52.700;6.236;2023-04-01T04:16:42;10.80;99.90
56727;DHT22;42609;52.700;6.236;2023-04-01T04:19:08;10.80;99.90
56727;DHT22;42609;52.700;6.236;2023-04-01T04:21:33;10.80;99.90
56727;DHT22;42609;52.700;6.236;2023-04-01T04:24:02;10.80;99.90
56727;DHT22;42609;52.700;6.236;2023-04-01T04:26:28;10.80;99.90
56727;DHT22;42609;52.700;6.236;2023-04-01T04:28:54;10.80;99.90
56727;DHT22;42609;52.700;6.236;2023-04-01T04:31:22;10.80;99.90
56727;DHT22;42609;52.700;6.236;2023-04-01T04:33:48;10.80;99.90
56727;DHT22;42609;52.700;6.236;2023-04-01T04:36:14;10.80;99.90
56727;DHT22;42609;52.700;6.236;2023-04-01T04:38:40;10.80;99.90
56727;DHT22;42609;52.700;6.236;2023-04-01T04:41:10;10.80;99.90
56727;DHT22;42609;52.700;6.236;2023-04-01T04:43:37;10.80;99.90
56727;DHT22;42609;52.700;6.236;2023-04-01T04:46:09;10.80;99.90
56727;DHT22;42609;52.700;6.236;2023-04-01T04:48:35;10.80;99.90
56727;DHT22;42609;52.700;6.236;2023-04-01T04:51:01;10.80;99.90
56727;DHT22;42609;52.700;6.236;2023-04-01T04:53:27;10.80;99.90
56727;DHT22;42609;52.700;6.236;2023-04-01T04:55:53;10.80;99.90
56727;DHT22;42609;52.700;6.236;2023-04-01T04:58:19;10.80;99.90
56727;DHT22;42609;52.700;6.236;2023-04-01T05:00:45;10.80;99.90
56727;DHT22;42609;52.700;6.236;2023-04-01T05:03:11;10.80;99.90
56727;DHT22;42609;52.700;6.236;2023-04-01T05:05:37;10.80;99.90
56727;DHT22;42609;52.700;6.236;2023-04-01T05:08:03;10.80;99.90
56727;DHT22;42609;52.700;6.236;2023-04-01T05:10:29;10.80;99.90
56727;DHT22;42609;52.700;6.236;2023-04-01T05:12:54;10.80;99.90
56727;DHT22;42609;52.700;6.236;2023-04-01T05:15:21;10.80;99.90
56727;DHT22;42609;52.700;6.236;2023-04-01T05:17:46;10.80;99.90
56727;DHT22;42609;52.700;6.236;2023-04-01T05:20:13;10.80;99.90
56727;DHT22;42609;52.700;6.236;2023-04-01T05:22:40;10.70;99.90
56727;DHT22;42609;52.700;6.236;2023-04-01T05:25:06;10.70;99.90
56727;DHT22;42609;52.700;6.236;2023-04-01T05:27:32;10.70;99.90
56727;DHT22;42609;52.700;6.236;2023-04-01T05:29:58;10.70;99.90
56727;DHT22;42609;52.700;6.236;2023-04-01T05:32:24;10.70;99.90
56727;DHT22;42609;52.700;6.236;2023-04-01T05:34:53;10.60;99.90
56727;DHT22;42609;52.700;6.236;2023-04-01T05:37:19;10.60;99.90
56727;DHT22;42609;52.700;6.236;2023-04-01T05:39:45;10.60;99.90
56727;DHT22;42609;52.700;6.236;2023-04-01T05:42:11;10.60;99.90
56727;DHT22;42609;52.700;6.236;2023-04-01T05:44:36;10.60;99.90
56727;DHT22;42609;52.700;6.236;2023-04-01T05:47:03;10.60;99.90
56727;DHT22;42609;52.700;6.236;2023-04-01T05:49:29;10.60;99.90
56727;DHT22;42609;52.700;6.236;2023-04-01T05:51:55;10.60;99.90
56727;DHT22;42609;52.700;6.236;2023-04-01T05:54:22;10.60;99.90
56727;DHT22;42609;52.700;6.236;2023-04-01T05:56:47;10.60;99.90
56727;DHT22;42609;52.700;6.236;2023-04-01T05:59:13;10.60;99.90
56727;DHT22;42609;52.700;6.236;2023-04-01T06:01:39;10.60;99.90
56727;DHT22;42609;52.700;6.236;2023-04-01T06:04:05;10.60;99.90
56727;DHT22;42609;52.700;6.236;2023-04-01T06:06:32;10.60;99.90
56727;DHT22;42609;52.700;6.236;2023-04-01T06:09:07;10.60;99.90
56727;DHT22;42609;52.700;6.236;2023-04-01T06:12:29;10.60;99.90
56727;DHT22;42609;52.700;6.236;2023-04-01T06:17:41;10.60;99.90
56727;DHT22;42609;52.700;6.236;2023-04-01T06:20:20;10.70;99.90
56727;DHT22;42609;52.700;6.236;2023-04-01T06:22:53;10.70;99.90
56727;DHT22;42609;52.700;6.236;2023-04-01T06:31:01;10.70;99.90
56727;DHT22;42609;52.700;6.236;2023-04-01T06:46:44;10.80;99.90
56727;DHT22;42609;52.700;6.236;2023-04-01T06:49:32;10.80;99.90
56727;DHT22;42609;52.700;6.236;2023-04-01T06:52:25;10.90;99.90
56727;DHT22;42609;52.700;6.236;2023-04-01T06:54:58;10.90;99.90
56727;DHT22;42609;52.700;6.236;2023-04-01T06:57:34;10.90;99.90
56727;DHT22;42609;52.700;6.236;2023-04-01T07:00:11;11.00;99.90
56727;DHT22;42609;52.700;6.236;2023-04-01T07:02:54;11.00;99.90
56727;DHT22;42609;52.700;6.236;2023-04-01T07:05:23;11.10;99.90
56727;DHT22;42609;52.700;6.236;2023-04-01T07:07:53;11.20;99.90
56727;DHT22;42609;52.700;6.236;2023-04-01T07:10:50;11.20;99.90
56727;DHT22;42609;52.700;6.236;2023-04-01T07:13:45;11.30;99.90
56727;DHT22;42609;52.700;6.236;2023-04-01T07:16:32;11.30;99.90
56727;DHT22;42609;52.700;6.236;2023-04-01T07:21:40;11.20;99.90
56727;DHT22;42609;52.700;6.236;2023-04-01T07:24:12;11.20;99.90
56727;DHT22;42609;52.700;6.236;2023-04-01T07:26:41;11.20;99.90
56727;DHT22;42609;52.700;6.236;2023-04-01T07:29:12;11.30;99.90
56727;DHT22;42609;52.700;6.236;2023-04-01T07:34:39;11.40;99.90
56727;DHT22;42609;52.700;6.236;2023-04-01T07:37:13;11.50;99.90
56727;DHT22;42609;52.700;6.236;2023-04-01T07:40:06;11.50;99.90
56727;DHT22;42609;52.700;6.236;2023-04-01T07:48:26;11.70;99.90
56727;DHT22;42609;52.700;6.236;2023-04-01T07:51:03;11.90;99.90
56727;DHT22;42609;52.700;6.236;2023-04-01T07:53:42;12.00;99.90
56727;DHT22;42609;52.700;6.236;2023-04-01T08:04:30;12.20;99.90
56727;DHT22;42609;52.700;6.236;2023-04-01T08:07:02;12.30;99.90
56727;DHT22;42609;52.700;6.236;2023-04-01T08:15:23;12.40;99.90
56727;DHT22;42609;52.700;6.236;2023-04-01T08:20:34;12.60;99.90
56727;DHT22;42609;52.700;6.236;2023-04-01T08:23:16;12.60;99.90
56727;DHT22;42609;52.700;6.236;2023-04-01T08:26:02;12.70;99.90
56727;DHT22;42609;52.700;6.236;2023-04-01T08:31:04;12.80;99.90
56727;DHT22;42609;52.700;6.236;2023-04-01T08:33:32;12.70;99.90
56727;DHT22;42609;52.700;6.236;2023-04-01T08:36:03;12.70;99.90
56727;DHT22;42609;52.700;6.236;2023-04-01T08:38:54;12.80;99.90
56727;DHT22;42609;52.700;6.236;2023-04-01T08:46:30;12.80;99.90
56727;DHT22;42609;52.700;6.236;2023-04-01T08:49:13;12.80;99.90
56727;DHT22;42609;52.700;6.236;2023-04-01T08:59:55;12.70;99.90
56727;DHT22;42609;52.700;6.236;2023-04-01T09:19:33;12.50;99.90
56727;DHT22;42609;52.700;6.236;2023-04-01T09:22:31;12.50;99.90
56727;DHT22;42609;52.700;6.236;2023-04-01T09:25:22;12.60;99.90
56727;DHT22;42609;52.700;6.236;2023-04-01T09:39:03;12.30;99.90
56727;DHT22;42609;52.700;6.236;2023-04-01T09:45:15;12.60;99.90
56727;DHT22;42609;52.700;6.236;2023-04-01T10:06:58;13.00;99.90
56727;DHT22;42609;52.700;6.236;2023-04-01T10:09:45;13.00;99.90
56727;DHT22;42609;52.700;6.236;2023-04-01T10:12:56;13.00;99.90
56727;DHT22;42609;52.700;6.236;2023-04-01T10:23:34;12.90;99.90
56727;DHT22;42609;52.700;6.236;2023-04-01T10:32:32;12.80;99.90
56727;DHT22;42609;52.700;6.236;2023-04-01T10:39:13;13.00;99.90
56727;DHT22;42609;52.700;6.236;2023-04-01T11:03:09;13.40;99.90
56727;DHT22;42609;52.700;6.236;2023-04-01T11:11:54;13.50;99.90
56727;DHT22;42609;52.700;6.236;2023-04-01T11:14:52;13.50;99.90
56727;DHT22;42609;52.700;6.236;2023-04-01T11:17:43;13.50;99.90
56727;DHT22;42609;52.700;6.236;2023-04-01T11:20:41;13.60;99.90
56727;DHT22;42609;52.700;6.236;2023-04-01T11:23:37;13.60;99.90
56727;DHT22;42609;52.700;6.236;2023-04-01T11:26:21;13.60;99.90
56727;DHT22;42609;52.700;6.236;2023-04-01T11:37:31;13.40;99.90
56727;DHT22;42609;52.700;6.236;2023-04-01T11:42:54;13.10;99.90
56727;DHT22;42609;52.700;6.236;2023-04-01T11:45:35;12.90;99.90
56727;DHT22;42609;52.700;6.236;2023-04-01T11:48:32;12.80;99.90
56727;DHT22;42609;52.700;6.236;2023-04-01T12:02:34;12.10;99.90
56727;DHT22;42609;52.700;6.236;2023-04-01T12:05:33;12.00;99.90
56727;DHT22;42609;52.700;6.236;2023-04-01T12:08:12;11.90;99.90
56727;DHT22;42609;52.700;6.236;2023-04-01T12:13:32;11.70;99.90
56727;DHT22;42609;52.700;6.236;2023-04-01T12:16:28;11.70;99.90
56727;DHT22;42609;52.700;6.236;2023-04-01T12:21:44;11.50;99.90
56727;DHT22;42609;52.700;6.236;2023-04-01T12:30:02;11.40;99.90
56727;DHT22;42609;52.700;6.236;2023-04-01T12:32:46;11.40;99.90
56727;DHT22;42609;52.700;6.236;2023-04-01T12:40:45;11.50;99.90
56727;DHT22;42609;52.700;6.236;2023-04-01T12:54:07;11.60;99.90
56727;DHT22;42609;52.700;6.236;2023-04-01T13:02:34;11.60;99.90
56727;DHT22;42609;52.700;6.236;2023-04-01T13:10:42;11.40;99.90
56727;DHT22;42609;52.700;6.236;2023-04-01T13:19:19;11.30;99.90
56727;DHT22;42609;52.700;6.236;2023-04-01T13:21:54;11.30;99.90
56727;DHT22;42609;52.700;6.236;2023-04-01T13:25:02;11.30;99.90
56727;DHT22;42609;52.700;6.236;2023-04-01T13:27:38;11.30;99.90
56727;DHT22;42609;52.700;6.236;2023-04-01T13:30:33;11.30;99.90
56727;DHT22;42609;52.700;6.236;2023-04-01T13:33:34;11.30;99.90
56727;DHT22;42609;52.700;6.236;2023-04-01T13:36:42;11.30;99.90
56727;DHT22;42609;52.700;6.236;2023-04-01T13:44:38;11.10;99.90
56727;DHT22;42609;52.700;6.236;2023-04-01T13:50:15;11.20;99.90
56727;DHT22;42609;52.700;6.236;2023-04-01T13:53:04;11.20;99.90
56727;DHT22;42609;52.700;6.236;2023-04-01T13:55:54;11.10;99.90
56727;DHT22;42609;52.700;6.236;2023-04-01T14:01:41;11.10;99.90
56727;DHT22;42609;52.700;6.236;2023-04-01T14:04:53;11.10;99.90
56727;DHT22;42609;52.700;6.236;2023-04-01T14:12:55;11.20;99.90
56727;DHT22;42609;52.700;6.236;2023-04-01T14:23:38;11.30;99.90
56727;DHT22;42609;52.700;6.236;2023-04-01T14:28:55;11.10;99.90
56727;DHT22;42609;52.700;6.236;2023-04-01T14:34:38;11.00;99.90
56727;DHT22;42609;52.700;6.236;2023-04-01T14:37:16;10.90;99.90
56727;DHT22;42609;52.700;6.236;2023-04-01T14:44:56;10.90;99.90
56727;DHT22;42609;52.700;6.236;2023-04-01T14:50:18;10.80;99.90
56727;DHT22;42609;52.700;6.236;2023-04-01T14:55:50;10.80;99.90
56727;DHT22;42609;52.700;6.236;2023-04-01T14:58:18;10.70;99.90
56727;DHT22;42609;52.700;6.236;2023-04-01T15:00:48;10.70;99.90
56727;DHT22;42609;52.700;6.236;2023-04-01T15:03:18;10.60;99.90
56727;DHT22;42609;52.700;6.236;2023-04-01T15:08:29;10.60;99.90
56727;DHT22;42609;52.700;6.236;2023-04-01T15:24:23;10.50;99.90
56727;DHT22;42609;52.700;6.236;2023-04-01T15:27:06;10.40;99.90
56727;DHT22;42609;52.700;6.236;2023-04-01T15:35:39;10.50;99.90
56727;DHT22;42609;52.700;6.236;2023-04-01T15:38:29;10.40;99.90
56727;DHT22;42609;52.700;6.236;2023-04-01T15:43:42;10.40;99.90
56727;DHT22;42609;52.700;6.236;2023-04-01T15:49:43;10.50;99.90
56727;DHT22;42609;52.700;6.236;2023-04-01T15:52:24;10.40;99.90
56727;DHT22;42609;52.700;6.236;2023-04-01T16:02:42;10.00;99.90
56727;DHT22;42609;52.700;6.236;2023-04-01T16:08:28;10.00;99.90
56727;DHT22;42609;52.700;6.236;2023-04-01T16:21:45;9.90;99.90
56727;DHT22;42609;52.700;6.236;2023-04-01T16:27:07;9.90;99.90
56727;DHT22;42609;52.700;6.236;2023-04-01T16:34:47;9.90;99.90
56727;DHT22;42609;52.700;6.236;2023-04-01T16:37:28;9.80;99.90
56727;DHT22;42609;52.700;6.236;2023-04-01T16:48:59;9.80;99.90
56727;DHT22;42609;52.700;6.236;2023-04-01T16:57:02;9.70;99.90
56727;DHT22;42609;52.700;6.236;2023-04-01T16:59:38;9.70;99.90
56727;DHT22;42609;52.700;6.236;2023-04-01T17:35:22;9.30;99.90
56727;DHT22;42609;52.700;6.236;2023-04-01T17:41:16;9.20;99.90
56727;DHT22;42609;52.700;6.236;2023-04-01T17:54:52;8.90;99.90
56727;DHT22;42609;52.700;6.236;2023-04-01T18:02:41;8.70;99.90
56727;DHT22;42609;52.700;6.236;2023-04-01T18:05:40;8.70;99.90
56727;DHT22;42609;52.700;6.236;2023-04-01T18:08:17;8.60;99.90
56727;DHT22;42609;52.700;6.236;2023-04-01T18:11:19;8.60;99.90
56727;DHT22;42609;52.700;6.236;2023-04-01T18:14:11;8.60;99.90
56727;DHT22;42609;52.700;6.236;2023-04-01T18:20:28;8.60;99.90
56727;DHT22;42609;52.700;6.236;2023-04-01T18:23:14;8.50;99.90
56727;DHT22;42609;52.700;6.236;2023-04-01T18:25:48;8.50;99.90
56727;DHT22;42609;52.700;6.236;2023-04-01T18:31:18;8.50;99.90
56727;DHT22;42609;52.700;6.236;2023-04-01T18:33:54;8.40;99.90
56727;DHT22;42609;52.700;6.236;2023-04-01T18:36:44;8.40;99.90
56727;DHT22;42609;52.700;6.236;2023-04-01T18:39:14;8.40;99.90
56727;DHT22;42609;52.700;6.236;2023-04-01T18:42:28;8.40;99.90
56727;DHT22;42609;52.700;6.236;2023-04-01T18:47:56;8.40;99.90
56727;DHT22;42609;52.700;6.236;2023-04-01T18:50:47;8.30;99.90
56727;DHT22;42609;52.700;6.236;2023-04-01T18:53:39;8.20;99.90
56727;DHT22;42609;52.700;6.236;2023-04-01T18:56:13;8.20;99.90
56727;DHT22;42609;52.700;6.236;2023-04-01T18:59:00;8.20;99.90
56727;DHT22;42609;52.700;6.236;2023-04-01T19:04:38;8.10;99.90
56727;DHT22;42609;52.700;6.236;2023-04-01T19:10:40;8.00;99.90
56727;DHT22;42609;52.700;6.236;2023-04-01T19:19:29;7.90;99.90
56727;DHT22;42609;52.700;6.236;2023-04-01T19:28:07;7.90;99.90
56727;DHT22;42609;52.700;6.236;2023-04-01T19:39:25;7.80;99.90
56727;DHT22;42609;52.700;6.236;2023-04-01T19:47:56;7.70;99.90
56727;DHT22;42609;52.700;6.236;2023-04-01T19:56:22;7.60;99.90
56727;DHT22;42609;52.700;6.236;2023-04-01T20:09:55;7.60;99.90
56727;DHT22;42609;52.700;6.236;2023-04-01T20:12:32;7.50;99.90
56727;DHT22;42609;52.700;6.236;2023-04-01T20:15:03;7.60;99.90
56727;DHT22;42609;52.700;6.236;2023-04-01T20:17:31;7.50;99.90
56727;DHT22;42609;52.700;6.236;2023-04-01T20:25:22;7.50;99.90
56727;DHT22;42609;52.700;6.236;2023-04-01T20:55:32;7.30;99.90
56727;DHT22;42609;52.700;6.236;2023-04-01T21:01:02;7.20;99.90
56727;DHT22;42609;52.700;6.236;2023-04-01T21:03:46;7.20;99.90
56727;DHT22;42609;52.700;6.236;2023-04-01T21:06:20;7.20;99.90
56727;DHT22;42609;52.700;6.236;2023-04-01T21:17:10;7.10;99.90
56727;DHT22;42609;52.700;6.236;2023-04-01T21:22:52;7.10;99.90
56727;DHT22;42609;52.700;6.236;2023-04-01T21:25:58;7.10;99.90
56727;DHT22;42609;52.700;6.236;2023-04-01T21:28:59;7.00;99.90
56727;DHT22;42609;52.700;6.236;2023-04-01T21:34:41;7.00;99.90
56727;DHT22;42609;52.700;6.236;2023-04-01T21:45:56;6.90;99.90
56727;DHT22;42609;52.700;6.236;2023-04-01T22:03:22;6.80;99.90
56727;DHT22;42609;52.700;6.236;2023-04-01T22:05:34;6.70;99.90
56727;DHT22;42609;52.700;6.236;2023-04-01T22:08:26;6.80;99.90
56727;DHT22;42609;52.700;6.236;2023-04-01T22:11:07;6.80;99.90
56727;DHT22;42609;52.700;6.236;2023-04-01T22:13:53;6.70;99.90
56727;DHT22;42609;52.700;6.236;2023-04-01T22:17:02;6.70;99.90
56727;DHT22;42609;52.700;6.236;2023-04-01T22:28:07;6.70;99.90
56727;DHT22;42609;52.700;6.236;2023-04-01T22:30:42;6.70;99.90
56727;DHT22;42609;52.700;6.236;2023-04-01T22:33:22;6.60;99.90
56727;DHT22;42609;52.700;6.236;2023-04-01T22:43:43;6.50;99.90
56727;DHT22;42609;52.700;6.236;2023-04-01T22:49:32;6.50;99.90
56727;DHT22;42609;52.700;6.236;2023-04-01T22:52:31;6.50;99.90
56727;DHT22;42609;52.700;6.236;2023-04-01T22:55:03;6.40;99.90
56727;DHT22;42609;52.700;6.236;2023-04-01T23:00:21;6.40;99.90
56727;DHT22;42609;52.700;6.236;2023-04-01T23:03:22;6.40;99.90
56727;DHT22;42609;52.700;6.236;2023-04-01T23:05:53;6.40;99.90
56727;DHT22;42609;52.700;6.236;2023-04-01T23:11:03;6.40;99.90
56727;DHT22;42609;52.700;6.236;2023-04-01T23:13:34;6.40;99.90
56727;DHT22;42609;52.700;6.236;2023-04-01T23:16:03;6.40;99.90
56727;DHT22;42609;52.700;6.236;2023-04-01T23:18:33;6.40;99.90
56727;DHT22;42609;52.700;6.236;2023-04-01T23:24:09;6.30;99.90
56727;DHT22;42609;52.700;6.236;2023-04-01T23:26:55;6.30;99.90
56727;DHT22;42609;52.700;6.236;2023-04-01T23:29:22;6.30;99.90
56727;DHT22;42609;52.700;6.236;2023-04-01T23:31:57;6.30;99.90
56727;DHT22;42609;52.700;6.236;2023-04-01T23:34:25;6.30;99.90
56727;DHT22;42609;52.700;6.236;2023-04-01T23:36:56;6.30;99.90
56727;DHT22;42609;52.700;6.236;2023-04-01T23:39:37;6.30;99.90
56727;DHT22;42609;52.700;6.236;2023-04-01T23:42:18;6.20;99.90
56727;DHT22;42609;52.700;6.236;2023-04-01T23:44:45;6.30;99.90
56727;DHT22;42609;52.700;6.236;2023-04-01T23:47:17;6.20;99.90
56727;DHT22;42609;52.700;6.236;2023-04-01T23:50:04;6.20;99.90
56727;DHT22;42609;52.700;6.236;2023-04-01T23:52:38;6.20;99.90
56727;DHT22;42609;52.700;6.236;2023-04-01T23:57:37;6.10;99.90
